Conakry, Guinea
Current Conditions -  °F | °C
As of 8:00 AM on Sunday 21 Dec 2014 (Local Time) from GGOV Reporting Station
Sand / Dust Storm Sand / Dust Storm  
Wind Chill: 21°   Ceiling: Unl
Heat Index: 21°   Visibility: 2.5mi
Dew Point:   Wind: 6mph
Humidity: 43%   Direction: 60°ENE
Pressure: 29.91"   Gusts: NA
Location:  9.55°N, 13.67°W
Report Text: GGOV 210800Z 06005KT 4000 DU NSC 21/08 Q1013 NOSIG
Loading
Personal Weather Stations






























Interactive Weather Map New forecast layout! Learn more

10-Day Weather Forecast

Advertisements
Track Severe Weather on mobile